Time;durP1;ratioP1;P1;durP2;ratioP2;P2;SDS_P1;SDS_P2;PMS_P1;PMS_P2;Temp;Humidity;BMP_temperature;BMP_pressure;BME280_temperature;BME280_humidity;BME280_pressure;Samples;Min_cycle;Max_cycle;Signal;HPM_P1;HPM_P2
2023/01/01 00:01:31;;;;;;;41.08;34.95;;;13.50;99.90;;;;;;5130245;27;20096;-79
2023/01/01 00:03:58;;;;;;;33.72;29.50;;;13.40;99.90;;;;;;5106379;27;20039;-80
2023/01/01 00:06:25;;;;;;;31.77;27.40;;;13.40;99.90;;;;;;5129788;27;20076;-79
2023/01/01 00:10:26;;;;;;;34.85;31.05;;;13.40;99.90;;;;;;5094270;27;20043;-81
2023/01/01 00:11:36;;;;;;;35.95;31.42;;;13.30;99.90;;;;;;5129896;27;20051;-79
2023/01/01 00:14:01;;;;;;;35.63;31.73;;;13.40;99.90;;;;;;5111406;27;20046;-81
2023/01/01 00:16:27;;;;;;;35.13;31.35;;;13.30;99.90;;;;;;5097497;27;20046;-81
2023/01/01 00:18:53;;;;;;;35.67;31.73;;;13.40;99.90;;;;;;5128220;27;20057;-80
2023/01/01 00:21:18;;;;;;;33.05;29.58;;;13.30;99.90;;;;;;5130268;27;20114;-80
2023/01/01 00:23:44;;;;;;;37.08;32.50;;;13.30;99.90;;;;;;5113829;27;20134;-80
2023/01/01 00:26:13;;;;;;;32.78;28.73;;;13.30;99.90;;;;;;5129992;27;20168;-80
2023/01/01 00:28:39;;;;;;;31.17;25.92;;;13.20;99.90;;;;;;5111942;27;20051;-81
2023/01/01 00:31:23;;;;;;;29.05;24.80;;;13.30;99.90;;;;;;5107429;28;20115;-82
2023/01/01 00:33:53;;;;;;;32.17;28.65;;;13.30;99.90;;;;;;5139894;27;20055;-81
2023/01/01 00:36:21;;;;;;;28.30;23.75;;;13.20;99.90;;;;;;5142084;27;20039;-81
2023/01/01 00:38:47;;;;;;;30.90;23.95;;;13.20;99.90;;;;;;5111588;27;20391;-80
2023/01/01 00:41:14;;;;;;;27.73;22.50;;;13.20;99.90;;;;;;5111024;27;20062;-81
2023/01/01 00:43:40;;;;;;;25.42;22.75;;;13.20;99.90;;;;;;5128202;27;20142;-79
2023/01/01 00:46:07;;;;;;;25.95;21.13;;;13.30;99.90;;;;;;5110720;27;20088;-79
2023/01/01 00:48:33;;;;;;;23.65;17.58;;;13.30;99.90;;;;;;5112628;27;20053;-79
2023/01/01 00:50:59;;;;;;;25.20;20.02;;;13.30;99.90;;;;;;5129912;27;20496;-79
2023/01/01 00:53:25;;;;;;;22.70;16.95;;;13.30;99.90;;;;;;5130431;27;20062;-80
2023/01/01 00:55:51;;;;;;;22.35;16.65;;;13.30;99.90;;;;;;5129316;27;20027;-80
2023/01/01 00:58:18;;;;;;;21.00;16.38;;;13.40;99.90;;;;;;5108980;27;20039;-79
2023/01/01 01:00:44;;;;;;;21.58;16.48;;;13.50;99.90;;;;;;5128062;27;20032;-80
2023/01/01 01:03:26;;;;;;;21.50;17.10;;;13.50;99.90;;;;;;5109868;27;20148;-79
2023/01/01 01:06:02;;;;;;;23.60;18.48;;;13.60;99.90;;;;;;5130786;27;20038;-78
2023/01/01 01:08:32;;;;;;;24.48;18.02;;;13.60;99.90;;;;;;5110757;27;20039;-81
2023/01/01 01:11:06;;;;;;;22.33;19.45;;;13.60;99.90;;;;;;5141084;27;20496;-79
2023/01/01 01:13:32;;;;;;;22.73;18.45;;;13.60;99.90;;;;;;5126515;27;20027;-79
2023/01/01 01:15:58;;;;;;;26.00;19.50;;;13.70;99.90;;;;;;5128468;27;20031;-80
2023/01/01 01:18:23;;;;;;;24.77;19.70;;;13.60;99.90;;;;;;5128794;27;20505;-81
2023/01/01 01:20:51;;;;;;;25.00;20.05;;;13.70;99.90;;;;;;5092758;27;20031;-80
2023/01/01 01:23:17;;;;;;;25.83;20.48;;;13.70;99.90;;;;;;5129397;27;20398;-79
2023/01/01 01:25:43;;;;;;;24.50;20.00;;;13.60;99.90;;;;;;5110147;27;20058;-80
2023/01/01 01:28:09;;;;;;;26.10;19.02;;;13.70;99.90;;;;;;5110589;27;20430;-79
2023/01/01 01:30:37;;;;;;;29.27;20.60;;;13.70;99.90;;;;;;5109209;27;20046;-80
2023/01/01 01:33:03;;;;;;;24.50;20.27;;;13.70;99.90;;;;;;5103459;27;20049;-78
2023/01/01 01:35:28;;;;;;;23.42;19.20;;;13.70;99.90;;;;;;5129300;27;20043;-79
2023/01/01 01:37:54;;;;;;;25.90;19.40;;;13.70;99.90;;;;;;5129365;27;20035;-79
2023/01/01 01:40:20;;;;;;;24.70;19.58;;;13.70;99.90;;;;;;5110791;27;20031;-80
2023/01/01 01:42:47;;;;;;;27.23;20.52;;;13.80;99.90;;;;;;5108833;27;20035;-81
2023/01/01 01:45:14;;;;;;;24.02;19.02;;;13.70;99.90;;;;;;5109386;27;20384;-81
2023/01/01 01:47:57;;;;;;;25.05;18.73;;;13.70;99.90;;;;;;5127745;27;20058;-80
2023/01/01 01:50:33;;;;;;;25.67;18.08;;;13.70;99.90;;;;;;5108680;27;20039;-79
2023/01/01 01:53:14;;;;;;;27.58;21.10;;;13.70;99.90;;;;;;5110519;27;20053;-79
2023/01/01 01:55:46;;;;;;;22.77;18.48;;;13.70;99.90;;;;;;5108418;27;20043;-80
2023/01/01 01:58:14;;;;;;;23.08;18.75;;;13.70;99.90;;;;;;5106876;27;20084;-80
2023/01/01 02:00:40;;;;;;;26.48;19.75;;;13.60;99.90;;;;;;5108949;27;20092;-79
2023/01/01 02:03:08;;;;;;;26.30;20.58;;;13.60;99.90;;;;;;5128238;27;20031;-79
2023/01/01 02:05:35;;;;;;;23.48;19.33;;;13.60;99.90;;;;;;5142222;27;20047;-80
2023/01/01 02:08:03;;;;;;;24.25;19.63;;;13.50;99.90;;;;;;5108267;27;20555;-80
2023/01/01 02:10:29;;;;;;;23.77;17.75;;;13.60;99.90;;;;;;5124004;27;20074;-79
2023/01/01 02:12:55;;;;;;;23.23;18.08;;;13.60;99.90;;;;;;5126328;27;20134;-80
2023/01/01 02:15:24;;;;;;;24.58;19.63;;;13.60;99.90;;;;;;5123960;27;20043;-78
2023/01/01 02:18:13;;;;;;;25.33;20.40;;;13.60;99.90;;;;;;5127181;27;20403;-79
2023/01/01 02:20:59;;;;;;;24.70;20.13;;;13.60;99.90;;;;;;5108412;27;20046;-80
2023/01/01 02:23:28;;;;;;;21.70;16.23;;;13.70;99.90;;;;;;5108631;27;20051;-80
2023/01/01 02:26:23;;;;;;;24.73;17.42;;;13.80;99.90;;;;;;5109219;27;20444;-81
2023/01/01 02:29:12;;;;;;;27.13;19.05;;;13.90;99.90;;;;;;5126227;27;20046;-79
2023/01/01 02:31:45;;;;;;;21.35;16.65;;;13.80;99.90;;;;;;5142907;27;20387;-80
2023/01/01 02:34:14;;;;;;;22.80;16.08;;;13.80;99.90;;;;;;5108224;27;20039;-79
2023/01/01 02:36:47;;;;;;;19.75;15.50;;;13.80;99.90;;;;;;5128372;28;20041;-80
2023/01/01 02:39:15;;;;;;;22.08;15.63;;;13.90;99.90;;;;;;5127662;28;20039;-80
2023/01/01 02:41:44;;;;;;;20.10;15.00;;;13.80;99.90;;;;;;5110590;28;20046;-80
2023/01/01 02:44:10;;;;;;;21.25;14.13;;;13.80;99.90;;;;;;5106896;28;20050;-80
2023/01/01 02:46:36;;;;;;;20.17;13.32;;;13.70;99.90;;;;;;5128374;28;20113;-80
2023/01/01 02:49:03;;;;;;;20.52;14.75;;;13.70;99.90;;;;;;5107830;28;20118;-80
2023/01/01 02:51:50;;;;;;;23.13;14.65;;;13.70;99.90;;;;;;5103417;28;20513;-80
2023/01/01 02:54:16;;;;;;;19.10;12.57;;;13.60;99.90;;;;;;5126956;28;20053;-79
2023/01/01 02:56:50;;;;;;;18.90;12.32;;;13.60;99.90;;;;;;5109630;27;20772;-79
2023/01/01 03:02:30;;;;;;;17.92;10.77;;;13.70;99.90;;;;;;5131194;27;20039;-81
2023/01/01 03:05:20;;;;;;;19.33;10.85;;;13.70;99.90;;;;;;5112087;27;20375;-79
2023/01/01 03:07:56;;;;;;;16.20;10.50;;;13.70;99.90;;;;;;5111344;27;20050;-79
2023/01/01 03:10:40;;;;;;;14.88;9.10;;;13.70;99.90;;;;;;5131168;27;20039;-80
2023/01/01 03:13:44;;;;;;;13.00;7.68;;;13.70;99.90;;;;;;5112539;27;20031;-79
2023/01/01 03:16:23;;;;;;;15.15;7.82;;;13.80;99.90;;;;;;5127058;27;20047;-79
2023/01/01 03:19:09;;;;;;;12.93;6.15;;;13.90;99.90;;;;;;5131304;27;20490;-80
2023/01/01 03:21:52;;;;;;;13.05;6.00;;;14.00;99.90;;;;;;5107334;27;20874;-79
2023/01/01 03:24:26;;;;;;;13.95;6.40;;;14.00;99.90;;;;;;5091518;27;20146;-79
2023/01/01 03:26:56;;;;;;;13.07;6.15;;;14.00;99.90;;;;;;5131028;27;20046;-80
2023/01/01 03:29:26;;;;;;;10.25;4.75;;;14.10;99.90;;;;;;5130546;27;20474;-80
2023/01/01 03:31:55;;;;;;;12.18;5.20;;;14.10;99.90;;;;;;5109477;27;20046;-80
2023/01/01 03:34:31;;;;;;;14.15;5.78;;;14.20;99.90;;;;;;5112217;27;20087;-79
2023/01/01 03:37:00;;;;;;;13.20;4.85;;;14.30;99.90;;;;;;5108088;27;20035;-79
2023/01/01 03:39:39;;;;;;;12.52;5.15;;;14.30;99.90;;;;;;5131357;27;20123;-80
2023/01/01 03:42:45;;;;;;;12.88;5.05;;;14.30;99.90;;;;;;5111146;27;20043;-79
2023/01/01 03:45:28;;;;;;;11.50;4.55;;;14.30;99.90;;;;;;5127529;27;20051;-79
2023/01/01 03:47:54;;;;;;;11.82;4.65;;;14.40;99.90;;;;;;5107650;27;20203;-80
2023/01/01 03:50:25;;;;;;;11.02;4.10;;;14.50;99.90;;;;;;5130454;27;20039;-79
2023/01/01 03:53:02;;;;;;;12.50;4.78;;;14.50;99.90;;;;;;5130823;27;20043;-80
2023/01/01 03:55:44;;;;;;;11.48;3.80;;;14.50;99.90;;;;;;5108188;27;20031;-80
2023/01/01 03:58:40;;;;;;;12.32;4.30;;;14.50;99.90;;;;;;5107489;27;20064;-80
2023/01/01 04:01:35;;;;;;;11.45;4.07;;;14.50;99.90;;;;;;5109750;27;20387;-80
2023/01/01 04:04:04;;;;;;;12.43;4.05;;;14.60;99.90;;;;;;5125881;27;20051;-79
2023/01/01 04:06:32;;;;;;;11.20;4.15;;;14.50;99.90;;;;;;5112732;27;20092;-80
2023/01/01 04:08:59;;;;;;;8.80;3.50;;;14.50;99.90;;;;;;5111071;27;20125;-79
2023/01/01 04:14:13;;;;;;;14.98;3.50;;;14.50;99.90;;;;;;5110753;27;20495;-80
2023/01/01 04:16:38;;;;;;;11.30;3.75;;;14.50;99.90;;;;;;5129011;27;20039;-80
2023/01/01 04:19:07;;;;;;;9.95;3.80;;;14.50;99.90;;;;;;5121234;27;20042;-79
2023/01/01 04:21:33;;;;;;;11.10;4.13;;;14.60;99.90;;;;;;5112287;27;20398;-80
2023/01/01 04:23:58;;;;;;;11.02;3.90;;;14.50;99.90;;;;;;5108348;28;20134;-80
2023/01/01 04:26:24;;;;;;;9.70;4.10;;;14.50;99.90;;;;;;5107700;28;20058;-80
2023/01/01 04:28:49;;;;;;;9.85;3.40;;;14.50;99.90;;;;;;5137607;27;20035;-79
2023/01/01 04:31:15;;;;;;;9.63;3.45;;;14.60;99.90;;;;;;5108191;28;20031;-79
2023/01/01 04:33:41;;;;;;;10.23;3.53;;;14.50;99.90;;;;;;5103820;28;20047;-79
2023/01/01 04:36:09;;;;;;;9.15;3.30;;;14.50;99.90;;;;;;5107201;28;20044;-80
2023/01/01 04:38:35;;;;;;;11.88;3.55;;;14.60;99.90;;;;;;5108720;28;20500;-79
2023/01/01 04:41:03;;;;;;;10.70;3.65;;;14.60;99.90;;;;;;5106647;28;20047;-79
2023/01/01 04:43:30;;;;;;;11.88;3.13;;;14.60;99.90;;;;;;5109708;28;20122;-80
2023/01/01 04:46:00;;;;;;;12.25;3.55;;;14.60;99.90;;;;;;5107683;28;20036;-79
2023/01/01 04:48:27;;;;;;;13.93;3.38;;;14.50;99.90;;;;;;5107787;28;20035;-81
2023/01/01 04:51:01;;;;;;;8.55;3.30;;;14.50;99.90;;;;;;5106375;27;20032;-82
2023/01/01 04:53:33;;;;;;;10.77;3.45;;;14.30;99.90;;;;;;5107790;28;20084;-80
2023/01/01 04:56:04;;;;;;;9.88;3.03;;;14.30;99.90;;;;;;5102913;28;20067;-82
2023/01/01 04:58:32;;;;;;;12.27;3.55;;;14.40;99.90;;;;;;5108772;28;20031;-81
2023/01/01 05:00:57;;;;;;;10.15;3.25;;;14.30;99.90;;;;;;5106935;28;20042;-79
2023/01/01 05:03:23;;;;;;;8.73;2.78;;;14.40;99.90;;;;;;5106106;28;20534;-79
2023/01/01 05:06:01;;;;;;;11.23;3.10;;;14.40;99.90;;;;;;5108891;28;20035;-79
2023/01/01 05:08:33;;;;;;;8.95;2.88;;;14.40;99.90;;;;;;5108810;28;20036;-79
2023/01/01 05:11:13;;;;;;;10.48;3.03;;;14.30;99.90;;;;;;5107335;28;20036;-82
2023/01/01 05:13:45;;;;;;;7.07;2.35;;;14.40;99.90;;;;;;5107046;28;20039;-79
2023/01/01 05:16:13;;;;;;;9.18;2.80;;;14.30;99.90;;;;;;5107452;28;20042;-81
2023/01/01 05:18:40;;;;;;;7.72;2.72;;;14.30;99.90;;;;;;5106339;28;20084;-80
2023/01/01 05:21:10;;;;;;;7.88;2.95;;;14.30;99.90;;;;;;5108118;28;20111;-79
2023/01/01 05:23:35;;;;;;;9.43;2.33;;;14.20;99.90;;;;;;5121712;27;20408;-80
2023/01/01 05:26:22;;;;;;;9.02;2.47;;;14.20;99.90;;;;;;5108716;27;20047;-79
2023/01/01 05:28:48;;;;;;;9.13;2.38;;;14.10;99.90;;;;;;5106261;27;20035;-79
2023/01/01 05:31:17;;;;;;;8.80;2.60;;;14.20;99.90;;;;;;5128999;27;20092;-79
2023/01/01 05:33:43;;;;;;;8.85;2.92;;;14.10;99.90;;;;;;5126854;27;20078;-78
2023/01/01 05:36:13;;;;;;;11.65;2.90;;;14.10;99.90;;;;;;5105136;27;20076;-80
2023/01/01 05:38:39;;;;;;;9.02;2.42;;;14.10;99.90;;;;;;5124638;27;20080;-78
2023/01/01 05:41:11;;;;;;;8.77;2.17;;;14.00;99.90;;;;;;5110157;27;20144;-80
2023/01/01 05:43:37;;;;;;;7.93;2.28;;;14.00;99.90;;;;;;5123850;27;20035;-79
2023/01/01 05:46:24;;;;;;;10.00;2.40;;;13.90;99.90;;;;;;5109225;27;20043;-79
2023/01/01 05:48:52;;;;;;;7.55;2.58;;;13.80;99.90;;;;;;5108280;27;20089;-79
2023/01/01 05:51:19;;;;;;;8.07;2.28;;;13.80;99.90;;;;;;5102531;27;20050;-79
2023/01/01 05:53:46;;;;;;;8.52;2.45;;;13.70;99.90;;;;;;5127982;27;20937;-79
2023/01/01 05:56:12;;;;;;;7.80;1.98;;;13.80;99.90;;;;;;5109623;27;20046;-79
2023/01/01 05:58:38;;;;;;;8.52;2.35;;;13.70;99.90;;;;;;5109155;27;20096;-79
2023/01/01 06:01:09;;;;;;;7.32;1.92;;;13.70;99.90;;;;;;5109123;27;20035;-80
2023/01/01 06:03:35;;;;;;;7.73;1.80;;;13.60;99.90;;;;;;5127587;27;20058;-79
2023/01/01 06:06:09;;;;;;;6.28;1.65;;;13.50;99.90;;;;;;5109448;27;20444;-79
2023/01/01 06:08:35;;;;;;;6.40;1.98;;;13.50;99.90;;;;;;5124334;27;20483;-78
2023/01/01 06:11:03;;;;;;;6.90;1.77;;;13.50;99.90;;;;;;5109960;27;20118;-77
2023/01/01 06:13:30;;;;;;;7.45;2.60;;;13.50;99.90;;;;;;5110316;27;20039;-77
2023/01/01 06:15:57;;;;;;;7.95;1.90;;;13.50;99.90;;;;;;5109658;27;20067;-79
2023/01/01 06:18:24;;;;;;;8.52;2.03;;;13.40;99.90;;;;;;5124059;27;20054;-80
2023/01/01 06:20:50;;;;;;;5.47;2.10;;;13.40;99.90;;;;;;5128249;27;20118;-78
2023/01/01 06:23:16;;;;;;;7.10;2.08;;;13.40;99.90;;;;;;5108866;27;20078;-80
2023/01/01 06:25:42;;;;;;;6.35;1.80;;;13.30;99.90;;;;;;5124092;27;20514;-79
2023/01/01 06:28:07;;;;;;;8.40;1.70;;;13.30;99.90;;;;;;5108754;27;20491;-79
2023/01/01 06:30:33;;;;;;;6.07;1.83;;;13.30;99.90;;;;;;5105682;27;20040;-79
2023/01/01 06:33:03;;;;;;;6.93;1.73;;;13.30;99.90;;;;;;5107543;27;20047;-79
2023/01/01 06:35:28;;;;;;;6.63;1.60;;;13.30;99.90;;;;;;5126358;27;20041;-80
2023/01/01 06:37:54;;;;;;;8.27;2.17;;;13.30;99.90;;;;;;5109032;27;20035;-78
2023/01/01 06:40:20;;;;;;;8.80;2.20;;;13.40;99.90;;;;;;5109431;28;20067;-80
2023/01/01 06:42:45;;;;;;;6.70;1.80;;;13.30;99.90;;;;;;5109604;28;20150;-79
2023/01/01 06:45:12;;;;;;;6.43;1.70;;;13.30;99.90;;;;;;5108866;28;20043;-79
2023/01/01 06:47:38;;;;;;;8.40;2.65;;;13.30;99.90;;;;;;5127706;28;20035;-80
2023/01/01 06:50:04;;;;;;;8.90;2.63;;;13.20;99.90;;;;;;5107709;28;20043;-79
2023/01/01 06:52:30;;;;;;;7.57;2.30;;;13.30;99.90;;;;;;5128300;28;20054;-79
2023/01/01 06:54:56;;;;;;;6.68;2.10;;;13.20;99.90;;;;;;5109338;28;20047;-78
2023/01/01 06:57:23;;;;;;;8.15;2.13;;;13.20;99.90;;;;;;5127043;28;20275;-79
2023/01/01 06:59:48;;;;;;;8.75;2.20;;;13.10;99.90;;;;;;5126903;28;20109;-78
2023/01/01 07:02:14;;;;;;;8.85;2.00;;;13.10;99.90;;;;;;5107343;28;20049;-78
2023/01/01 07:04:39;;;;;;;9.35;2.53;;;13.20;99.90;;;;;;5125397;28;20050;-79
2023/01/01 07:07:05;;;;;;;11.77;2.75;;;13.10;99.90;;;;;;5127409;28;20038;-79
2023/01/01 07:09:31;;;;;;;9.95;2.80;;;13.10;99.90;;;;;;5108782;28;20034;-79
2023/01/01 07:11:56;;;;;;;8.05;2.33;;;13.00;99.90;;;;;;5126867;28;20041;-80
2023/01/01 07:14:22;;;;;;;10.43;2.75;;;13.00;99.90;;;;;;5107374;28;20482;-79
2023/01/01 07:16:48;;;;;;;9.85;2.38;;;12.90;99.90;;;;;;5127129;28;20043;-79
2023/01/01 07:19:13;;;;;;;8.35;2.63;;;13.00;99.90;;;;;;5106424;28;20035;-78
2023/01/01 07:21:42;;;;;;;10.95;3.08;;;13.00;99.90;;;;;;5108386;28;20034;-78
2023/01/01 07:24:11;;;;;;;8.45;2.33;;;12.90;99.90;;;;;;5104497;28;20074;-80
2023/01/01 07:26:36;;;;;;;10.63;2.72;;;12.90;99.90;;;;;;5104291;28;20051;-80
2023/01/01 07:29:02;;;;;;;11.60;2.80;;;12.90;99.90;;;;;;5125954;28;20084;-76
2023/01/01 07:31:28;;;;;;;10.25;2.33;;;12.80;99.90;;;;;;5107562;28;20046;-76
2023/01/01 07:33:53;;;;;;;13.70;2.80;;;12.80;99.90;;;;;;5104873;28;20800;-76
2023/01/01 07:36:19;;;;;;;9.55;2.20;;;12.80;99.90;;;;;;5106285;28;20056;-77
2023/01/01 07:38:45;;;;;;;11.57;2.47;;;12.80;99.90;;;;;;5105472;28;20068;-77
2023/01/01 07:41:10;;;;;;;8.55;2.97;;;12.90;99.90;;;;;;5107543;28;20035;-76
2023/01/01 07:43:36;;;;;;;11.65;2.75;;;12.90;99.90;;;;;;5109393;27;20034;-76
2023/01/01 07:46:02;;;;;;;9.98;2.50;;;12.90;99.90;;;;;;5111577;27;20071;-75
2023/01/01 07:48:29;;;;;;;10.93;2.55;;;12.90;99.90;;;;;;5108479;27;20127;-76
2023/01/01 07:50:54;;;;;;;11.43;2.30;;;12.80;99.90;;;;;;5111388;27;20076;-76
2023/01/01 07:53:20;;;;;;;9.00;2.55;;;12.80;99.90;;;;;;5106586;27;20039;-76
2023/01/01 07:55:46;;;;;;;9.35;2.00;;;12.70;99.90;;;;;;5109418;27;20035;-76
2023/01/01 07:58:12;;;;;;;8.63;2.10;;;12.70;99.90;;;;;;5115417;27;20495;-76
2023/01/01 08:00:38;;;;;;;9.30;2.20;;;12.70;99.90;;;;;;5111961;27;20089;-76
2023/01/01 08:03:04;;;;;;;9.45;2.08;;;12.70;99.90;;;;;;5126470;27;20035;-76
2023/01/01 08:05:30;;;;;;;10.38;2.45;;;12.80;99.90;;;;;;5111295;27;20421;-78
2023/01/01 08:07:56;;;;;;;8.75;1.77;;;12.80;99.90;;;;;;5112384;27;20087;-78
2023/01/01 08:10:21;;;;;;;9.48;2.10;;;12.70;99.90;;;;;;5111185;27;20047;-77
2023/01/01 08:12:47;;;;;;;10.82;2.28;;;12.80;99.90;;;;;;5109334;27;20034;-78
2023/01/01 08:15:15;;;;;;;9.52;2.53;;;12.80;99.90;;;;;;5107903;27;20505;-78
2023/01/01 08:17:40;;;;;;;11.68;2.80;;;12.80;99.90;;;;;;5115192;27;20035;-77
2023/01/01 08:20:07;;;;;;;10.38;2.15;;;12.70;99.90;;;;;;5112215;27;20543;-77
2023/01/01 08:22:33;;;;;;;11.15;2.67;;;12.60;99.90;;;;;;5092966;27;20051;-78
2023/01/01 08:24:59;;;;;;;10.02;2.70;;;12.60;99.90;;;;;;5110712;27;20503;-77
2023/01/01 08:27:24;;;;;;;12.45;2.70;;;12.60;99.90;;;;;;5129128;27;20038;-77
2023/01/01 08:29:50;;;;;;;10.15;2.38;;;12.60;99.90;;;;;;5092594;27;20441;-78
2023/01/01 08:32:15;;;;;;;9.38;2.28;;;12.60;99.90;;;;;;5129245;27;20586;-78
2023/01/01 08:34:41;;;;;;;6.93;2.10;;;12.60;99.90;;;;;;5123586;27;20043;-78
2023/01/01 08:37:12;;;;;;;10.48;2.35;;;12.50;99.90;;;;;;5107768;27;20465;-80
2023/01/01 08:39:37;;;;;;;9.65;2.30;;;12.50;99.90;;;;;;5121773;27;20077;-77
2023/01/01 08:42:03;;;;;;;9.73;2.63;;;12.50;99.90;;;;;;5129403;27;20510;-76
2023/01/01 08:44:29;;;;;;;10.48;3.00;;;12.50;99.90;;;;;;5107869;27;20035;-78
2023/01/01 08:46:55;;;;;;;10.10;2.53;;;12.50;99.90;;;;;;5103612;27;20042;-78
2023/01/01 08:49:20;;;;;;;10.40;2.30;;;12.50;99.90;;;;;;5110071;27;20122;-77
2023/01/01 08:51:46;;;;;;;9.63;2.63;;;12.40;99.90;;;;;;5109426;27;20035;-78
2023/01/01 08:54:11;;;;;;;11.88;2.42;;;12.40;99.90;;;;;;5129644;27;20051;-78
2023/01/01 08:56:37;;;;;;;13.55;3.05;;;12.40;99.90;;;;;;5112377;27;20535;-79
2023/01/01 08:59:03;;;;;;;12.80;2.80;;;12.40;99.90;;;;;;5111124;27;20151;-78
2023/01/01 09:01:29;;;;;;;11.25;2.55;;;12.40;99.90;;;;;;5129126;27;20109;-77
2023/01/01 09:03:54;;;;;;;12.45;2.60;;;12.40;99.90;;;;;;5110399;27;20031;-77
2023/01/01 09:06:20;;;;;;;10.63;2.33;;;12.30;99.90;;;;;;5110925;27;20088;-78
2023/01/01 09:08:46;;;;;;;12.55;2.80;;;12.30;99.90;;;;;;5111652;27;20031;-78
2023/01/01 09:11:27;;;;;;;11.50;3.03;;;12.30;99.90;;;;;;5110364;27;20062;-78
2023/01/01 09:13:53;;;;;;;14.10;2.97;;;12.30;99.90;;;;;;5108314;27;20039;-79
2023/01/01 09:16:20;;;;;;;13.50;3.10;;;12.20;99.90;;;;;;5093439;27;20035;-78
2023/01/01 09:18:45;;;;;;;10.05;2.50;;;12.30;99.90;;;;;;5099771;27;20039;-77
2023/01/01 09:21:11;;;;;;;11.27;2.92;;;12.20;99.90;;;;;;5109201;27;20530;-77
2023/01/01 09:23:37;;;;;;;12.88;2.88;;;12.30;99.90;;;;;;5109878;27;20617;-78
2023/01/01 09:26:05;;;;;;;8.43;2.28;;;12.30;99.90;;;;;;5143008;27;20038;-78
2023/01/01 09:28:31;;;;;;;13.10;3.45;;;12.30;99.90;;;;;;5128362;27;20047;-77
2023/01/01 09:30:56;;;;;;;11.98;2.45;;;12.30;99.90;;;;;;5109895;27;20031;-77
2023/01/01 09:33:22;;;;;;;11.98;2.72;;;12.30;99.90;;;;;;5125477;27;20087;-78
2023/01/01 09:35:48;;;;;;;11.95;2.40;;;12.40;99.90;;;;;;5110332;27;20043;-78
2023/01/01 09:38:14;;;;;;;9.93;2.55;;;12.40;99.90;;;;;;5129464;27;20413;-78
2023/01/01 09:41:07;;;;;;;10.25;2.88;;;12.40;99.90;;;;;;5109219;27;20047;-77
2023/01/01 09:43:39;;;;;;;11.55;2.65;;;12.40;99.90;;;;;;5104972;27;20067;-78
2023/01/01 09:46:07;;;;;;;8.68;2.13;;;12.40;99.90;;;;;;5128542;27;20047;-79
2023/01/01 09:48:38;;;;;;;10.98;2.70;;;12.40;99.90;;;;;;5110753;27;20036;-78
2023/01/01 09:51:08;;;;;;;9.23;2.30;;;12.40;99.90;;;;;;5128699;27;20115;-78
2023/01/01 09:53:41;;;;;;;12.43;3.17;;;12.40;99.90;;;;;;5129815;27;20058;-78
2023/01/01 09:56:14;;;;;;;11.93;3.03;;;12.30;99.90;;;;;;5109827;27;20058;-78
2023/01/01 09:58:39;;;;;;;11.60;2.50;;;12.30;99.90;;;;;;5105125;27;20047;-78
2023/01/01 10:01:09;;;;;;;11.63;2.70;;;12.30;99.90;;;;;;5107919;27;20043;-77
2023/01/01 10:03:39;;;;;;;11.57;2.90;;;12.40;99.90;;;;;;5108592;27;20121;-78
2023/01/01 10:06:18;;;;;;;12.52;2.75;;;12.30;99.90;;;;;;5104865;28;20035;-78
2023/01/01 10:09:12;;;;;;;12.50;2.63;;;12.20;99.90;;;;;;5110351;27;20074;-78
2023/01/01 10:12:05;;;;;;;11.18;2.67;;;12.30;99.90;;;;;;5108808;27;20043;-79
2023/01/01 10:14:39;;;;;;;12.32;2.88;;;12.20;99.90;;;;;;5108713;27;20066;-78
2023/01/01 10:17:30;;;;;;;11.07;3.03;;;12.20;99.90;;;;;;5105573;27;20039;-78
2023/01/01 10:20:00;;;;;;;12.23;2.40;;;12.10;99.90;;;;;;5076822;27;20046;-78
2023/01/01 10:22:38;;;;;;;9.32;2.30;;;12.20;99.90;;;;;;5106251;28;20155;-77
2023/01/01 10:25:17;;;;;;;11.63;2.47;;;12.20;99.90;;;;;;5105986;28;20081;-76
2023/01/01 10:27:55;;;;;;;11.15;2.70;;;12.10;99.90;;;;;;5099538;28;20040;-78
2023/01/01 10:30:22;;;;;;;10.65;2.30;;;12.10;99.90;;;;;;5103891;28;20039;-77
2023/01/01 10:32:50;;;;;;;13.18;3.08;;;12.20;99.90;;;;;;5106295;28;20043;-77
2023/01/01 10:35:19;;;;;;;10.30;2.60;;;12.30;99.90;;;;;;5105402;28;20043;-77
2023/01/01 10:37:45;;;;;;;8.90;2.35;;;12.40;99.90;;;;;;5131903;27;20036;-78
2023/01/01 10:40:17;;;;;;;11.65;2.60;;;12.40;99.90;;;;;;5101677;28;20111;-77
2023/01/01 10:42:47;;;;;;;10.90;2.50;;;12.50;99.90;;;;;;5102315;28;20024;-78
2023/01/01 10:45:16;;;;;;;11.43;2.30;;;12.50;99.90;;;;;;5103969;28;20035;-80
2023/01/01 10:48:09;;;;;;;11.10;2.70;;;12.60;99.90;;;;;;5105188;28;20039;-78
2023/01/01 10:50:43;;;;;;;10.65;2.67;;;12.60;99.90;;;;;;5102503;28;20450;-77
2023/01/01 10:53:40;;;;;;;12.18;3.67;;;12.70;99.90;;;;;;5102180;28;20039;-77
2023/01/01 10:56:05;;;;;;;11.05;2.33;;;12.60;99.90;;;;;;5104982;28;20070;-77
2023/01/01 10:58:39;;;;;;;10.65;2.08;;;12.60;99.90;;;;;;5105433;28;20267;-77
2023/01/01 11:01:25;;;;;;;13.18;2.65;;;12.70;99.90;;;;;;5105872;28;20058;-77
2023/01/01 11:04:07;;;;;;;11.65;2.60;;;12.70;99.90;;;;;;5105259;28;20031;-78
2023/01/01 11:06:48;;;;;;;10.32;2.25;;;12.90;99.90;;;;;;5103686;28;20162;-76
2023/01/01 11:09:21;;;;;;;10.25;2.60;;;12.80;99.90;;;;;;5100607;28;20388;-77
2023/01/01 11:11:57;;;;;;;12.48;2.70;;;12.80;99.90;;;;;;5103695;28;20031;-78
2023/01/01 11:14:37;;;;;;;11.57;2.70;;;12.80;99.90;;;;;;5104941;28;20043;-78
2023/01/01 11:17:03;;;;;;;12.38;3.22;;;12.90;99.90;;;;;;5102687;28;20040;-78
2023/01/01 11:19:35;;;;;;;10.57;2.42;;;12.80;99.90;;;;;;5110930;28;20043;-77
2023/01/01 11:22:01;;;;;;;12.23;3.03;;;12.70;99.90;;;;;;5108698;27;20027;-77
2023/01/01 11:24:29;;;;;;;10.52;2.50;;;12.80;99.90;;;;;;5096080;27;20096;-76
2023/01/01 11:27:21;;;;;;;12.70;2.95;;;12.80;99.90;;;;;;5112498;27;20282;-77
2023/01/01 11:29:47;;;;;;;11.80;2.92;;;12.80;99.90;;;;;;5109601;27;20051;-77
2023/01/01 11:32:25;;;;;;;11.65;2.72;;;12.80;99.90;;;;;;5130758;27;20043;-79
2023/01/01 11:35:05;;;;;;;10.57;2.28;;;12.80;99.90;;;;;;5095657;27;20482;-78
2023/01/01 11:37:33;;;;;;;11.30;2.70;;;12.80;99.90;;;;;;5110614;27;20487;-78
2023/01/01 11:40:00;;;;;;;13.20;3.00;;;12.90;99.90;;;;;;5108748;27;20118;-78
2023/01/01 11:42:28;;;;;;;11.50;2.50;;;12.90;99.90;;;;;;5113303;27;20062;-77
2023/01/01 11:44:59;;;;;;;12.10;2.70;;;12.90;99.90;;;;;;5127546;27;20448;-79
2023/01/01 11:47:30;;;;;;;13.90;3.05;;;12.90;99.90;;;;;;5112449;27;20039;-78
2023/01/01 11:50:07;;;;;;;11.80;3.00;;;12.90;99.90;;;;;;5109575;27;20042;-78
2023/01/01 11:52:45;;;;;;;14.15;3.00;;;12.90;99.90;;;;;;5112747;27;20088;-78
2023/01/01 11:55:13;;;;;;;10.63;2.80;;;12.90;99.90;;;;;;5108724;27;20369;-79
2023/01/01 11:58:01;;;;;;;11.07;2.80;;;12.90;99.90;;;;;;5112762;27;20364;-78
2023/01/01 12:00:31;;;;;;;13.13;2.90;;;13.00;99.90;;;;;;5105842;27;20050;-78
2023/01/01 12:03:10;;;;;;;11.68;3.30;;;13.00;99.90;;;;;;5102739;27;20050;-77
2023/01/01 12:05:55;;;;;;;11.15;2.38;;;12.90;99.90;;;;;;5108922;27;20064;-77
2023/01/01 12:08:27;;;;;;;12.48;3.15;;;13.00;99.90;;;;;;5126939;27;20388;-78
2023/01/01 12:11:02;;;;;;;11.85;2.67;;;13.10;99.90;;;;;;5105297;27;20069;-78
2023/01/01 12:13:43;;;;;;;12.90;3.10;;;13.10;99.90;;;;;;5109495;27;20046;-76
2023/01/01 12:16:19;;;;;;;8.73;2.55;;;13.00;99.90;;;;;;5091048;27;20384;-77
2023/01/01 12:18:50;;;;;;;11.05;3.03;;;13.00;99.90;;;;;;5111654;27;20035;-77
2023/01/01 12:21:27;;;;;;;11.07;2.70;;;12.90;99.90;;;;;;5111009;27;20038;-77
2023/01/01 12:23:53;;;;;;;13.07;2.85;;;12.90;99.90;;;;;;5110018;27;20138;-77
2023/01/01 12:26:22;;;;;;;11.55;2.90;;;12.80;99.90;;;;;;5129842;27;20431;-77
2023/01/01 12:29:00;;;;;;;14.25;3.25;;;12.80;99.90;;;;;;5124511;27;20039;-77
2023/01/01 12:31:28;;;;;;;9.90;2.90;;;12.80;99.90;;;;;;5125689;27;20035;-77
2023/01/01 12:34:02;;;;;;;12.55;2.70;;;12.80;99.90;;;;;;5129432;27;20047;-77
2023/01/01 12:36:46;;;;;;;15.18;3.10;;;12.80;99.90;;;;;;5110035;27;20039;-76
2023/01/01 12:39:50;;;;;;;12.90;3.13;;;12.80;99.90;;;;;;5112064;27;20047;-77
2023/01/01 12:42:25;;;;;;;13.10;2.95;;;12.80;99.90;;;;;;5093791;27;20376;-77
2023/01/01 12:45:03;;;;;;;11.57;2.58;;;12.70;99.90;;;;;;5125145;27;21161;-77
2023/01/01 12:47:47;;;;;;;12.45;2.60;;;12.70;99.90;;;;;;5109709;27;20035;-77
2023/01/01 12:50:26;;;;;;;10.75;2.78;;;12.80;99.90;;;;;;5110940;27;20067;-76
2023/01/01 12:53:04;;;;;;;9.82;2.70;;;12.80;99.90;;;;;;5137416;27;20051;-77
2023/01/01 12:55:36;;;;;;;13.13;3.08;;;12.80;99.90;;;;;;5134954;27;20110;-78
2023/01/01 12:58:14;;;;;;;10.75;3.20;;;12.80;99.90;;;;;;5107979;27;20507;-76
2023/01/01 13:00:46;;;;;;;10.85;2.85;;;12.80;99.90;;;;;;5109229;27;20043;-76
2023/01/01 13:03:22;;;;;;;14.00;2.95;;;12.80;99.90;;;;;;5129306;27;20042;-76